Time;durP1;ratioP1;P1;durP2;ratioP2;P2;SDS_P1;SDS_P2;PMS_P1;PMS_P2;Temp;Humidity;BMP_temperature;BMP_pressure;BME280_temperature;BME280_humidity;BME280_pressure;Samples;Min_cycle;Max_cycle;Signal;HPM_P1;HPM_P2
2022/09/29 00:01:22;;;;;;;;;4.00;4.00;;;;;12.79;67.89;99805.91;5056395;28;45309;-86
2022/09/29 00:03:48;;;;;;;;;6.00;4.00;;;;;12.79;68.40;99806.75;5056982;28;45341;-87
2022/09/29 00:06:15;;;;;;;;;4.00;3.25;;;;;12.79;68.25;99808.53;5055595;28;45342;-86
2022/09/29 00:08:41;;;;;;;;;4.50;3.25;;;;;12.75;68.49;99809.63;5055270;28;47209;-86
2022/09/29 00:11:08;;;;;;;;;4.00;3.00;;;;;12.75;68.03;99804.38;5056585;28;45292;-86
2022/09/29 00:13:34;;;;;;;;;6.00;6.00;;;;;12.73;68.35;99801.84;5032102;28;45361;-86
2022/09/29 00:16:01;;;;;;;;;3.50;3.00;;;;;12.70;68.09;99795.94;5058090;28;50602;-87
2022/09/29 00:18:26;;;;;;;;;2.75;2.75;;;;;12.69;68.48;99804.72;5076789;27;45424;-87
2022/09/29 00:21:11;;;;;;;;;3.00;2.75;;;;;12.63;68.37;99803.28;5058848;28;45399;-88
2022/09/29 00:23:37;;;;;;;;;5.00;2.00;;;;;12.62;68.50;99792.91;5076974;28;45382;-87
2022/09/29 00:26:04;;;;;;;;;3.25;3.00;;;;;12.63;68.37;99795.44;5058028;28;58507;-87
2022/09/29 00:28:30;;;;;;;;;2.75;2.75;;;;;12.65;68.14;99797.94;5076673;28;46484;-86
2022/09/29 00:30:58;;;;;;;;;6.00;3.25;;;;;12.65;68.79;99793.59;5057958;27;45407;-87
2022/09/29 00:33:23;;;;;;;;;4.00;4.00;;;;;12.64;68.31;99794.50;5058661;28;45323;-87
2022/09/29 00:36:00;;;;;;;;;8.25;4.00;;;;;12.65;68.43;99792.72;5076742;27;45352;-87
2022/09/29 00:38:26;;;;;;;;;4.00;3.00;;;;;12.65;68.58;99790.97;5058539;28;46361;-87
2022/09/29 00:40:51;;;;;;;;;4.50;3.25;;;;;12.66;68.53;99797.03;5058555;28;45829;-87
2022/09/29 00:43:22;;;;;;;;;3.75;3.00;;;;;12.69;68.43;99799.50;5076696;27;45878;-87
2022/09/29 00:45:50;;;;;;;;;5.50;2.00;;;;;12.69;68.42;99800.34;5074973;28;45309;-86
2022/09/29 00:48:20;;;;;;;;;3.00;3.00;;;;;12.75;68.88;99796.56;5058104;28;47276;-86
2022/09/29 00:50:50;;;;;;;;;5.00;3.50;;;;;12.79;69.01;99790.25;5058605;28;45361;-86
2022/09/29 00:53:16;;;;;;;;;3.50;3.00;;;;;12.83;68.40;99791.75;5058293;28;45741;-86
2022/09/29 00:55:46;;;;;;;;;2.50;2.50;;;;;12.76;68.32;99786.03;5058088;28;45407;-86
2022/09/29 00:58:32;;;;;;;;;3.00;2.00;;;;;12.74;68.33;99780.06;5040887;28;48713;-87
2022/09/29 01:00:58;;;;;;;;;2.50;2.00;;;;;12.71;68.30;99781.97;5058019;28;45373;-87
2022/09/29 01:03:28;;;;;;;;;7.00;1.00;;;;;12.65;68.16;99775.31;5059087;28;45487;-89
2022/09/29 01:05:57;;;;;;;;;2.00;2.00;;;;;12.60;68.06;99777.31;5076540;28;45297;-89
2022/09/29 01:08:44;;;;;;;;;1.25;1.25;;;;;12.58;68.50;99772.19;5075263;28;46666;-88
2022/09/29 01:11:11;;;;;;;;;1.00;1.00;;;;;12.62;68.29;99772.88;5058473;28;45375;-88
2022/09/29 01:13:37;;;;;;;;;4.00;2.00;;;;;12.61;68.67;99768.59;5076151;28;45438;-87
2022/09/29 01:16:02;;;;;;;;;3.25;1.75;;;;;12.66;68.88;99768.31;5058384;28;45431;-88
2022/09/29 01:18:29;;;;;;;;;2.00;1.25;;;;;12.71;68.67;99767.16;5057488;28;66203;-88
2022/09/29 01:21:00;;;;;;;;;2.50;1.00;;;;;12.75;68.25;99766.06;5058280;28;45374;-87
2022/09/29 01:24:03;;;;;;;;;2.25;2.25;;;;;12.76;68.80;99765.16;5076325;27;45358;-88
2022/09/29 01:26:42;;;;;;;;;1.50;1.00;;;;;12.79;68.83;99764.13;5057714;28;45641;-88
2022/09/29 01:29:26;;;;;;;;;2.75;2.75;;;;;12.79;68.58;99762.34;5075633;28;46494;-87
2022/09/29 01:32:00;;;;;;;;;2.25;1.00;;;;;12.85;68.44;99768.19;5076242;28;45653;-87
2022/09/29 01:34:49;;;;;;;;;1.00;1.00;;;;;12.88;68.93;99754.97;5075924;28;45437;-88
2022/09/29 01:37:24;;;;;;;;;2.00;1.50;;;;;12.91;68.61;99760.03;5076011;28;45553;-88
2022/09/29 01:40:02;;;;;;;;;3.75;1.50;;;;;12.92;67.66;99753.88;5057788;28;47469;-88
2022/09/29 01:42:36;;;;;;;;;3.25;1.50;;;;;12.92;68.12;99759.09;5057415;28;45308;-87
2022/09/29 01:45:13;;;;;;;;;0.50;0.50;;;;;12.88;67.64;99755.78;5057670;28;45483;-86
2022/09/29 01:47:44;;;;;;;;;1.25;1.00;;;;;12.83;67.12;99752.59;5057526;28;45265;-86
2022/09/29 01:50:17;;;;;;;;;1.00;1.00;;;;;12.77;67.57;99753.75;5040697;28;47157;-88
2022/09/29 01:52:55;;;;;;;;;1.75;1.00;;;;;12.77;67.97;99761.59;5057612;28;45336;-87
2022/09/29 01:55:24;;;;;;;;;1.75;1.75;;;;;12.83;67.69;99776.09;5057824;28;45245;-87
2022/09/29 01:57:53;;;;;;;;;1.00;1.00;;;;;12.87;67.95;99766.31;5057118;28;45332;-87
2022/09/29 02:00:20;;;;;;;;;2.50;1.00;;;;;12.88;68.50;99768.84;5057382;28;45297;-86
2022/09/29 02:03:09;;;;;;;;;2.00;2.00;;;;;12.88;68.15;99774.06;5057575;28;45664;-87
2022/09/29 02:05:53;;;;;;;;;2.00;2.00;;;;;12.91;68.28;99770.47;5057455;28;45369;-86
2022/09/29 02:08:31;;;;;;;;;1.50;1.50;;;;;12.92;68.53;99770.38;5040405;28;45297;-86
2022/09/29 02:11:05;;;;;;;;;1.00;1.00;;;;;12.93;67.90;99777.28;5057244;28;46214;-86
2022/09/29 02:13:36;;;;;;;;;4.50;2.75;;;;;12.92;67.61;99772.97;5075139;28;45510;-86
2022/09/29 02:16:04;;;;;;;;;1.50;1.50;;;;;12.87;67.58;99776.78;5057275;28;45469;-86
2022/09/29 02:18:36;;;;;;;;;7.75;2.75;;;;;12.84;67.96;99780.41;5059536;28;45388;-86
2022/09/29 02:21:01;;;;;;;;;6.00;2.25;;;;;12.84;67.65;99779.56;5060532;27;47300;-86
2022/09/29 02:23:27;;;;;;;;;7.00;2.00;;;;;12.78;67.38;99776.34;5042933;28;66776;-86
2022/09/29 02:25:53;;;;;;;;;3.00;3.00;;;;;12.77;68.06;99776.44;5077348;27;45376;-86
2022/09/29 02:28:19;;;;;;;;;4.00;2.00;;;;;12.78;68.57;99771.13;5078583;28;45507;-86
2022/09/29 02:30:44;;;;;;;;;3.00;2.50;;;;;12.83;67.99;99776.09;5060225;28;45415;-86
2022/09/29 02:33:21;;;;;;;;;2.50;2.50;;;;;12.88;67.89;99770.63;5060348;28;45511;-86
2022/09/29 02:36:02;;;;;;;;;3.75;2.00;;;;;12.91;68.11;99770.47;5060639;28;45324;-86
2022/09/29 02:38:53;;;;;;;;;2.00;2.00;;;;;12.92;67.91;99762.53;5060343;28;45431;-86
2022/09/29 02:41:35;;;;;;;;;2.00;2.00;;;;;12.90;67.88;99761.78;5059762;28;47483;-86
2022/09/29 02:44:27;;;;;;;;;1.75;1.75;;;;;12.90;68.00;99758.34;5076864;27;45312;-86
2022/09/29 02:47:03;;;;;;;;;3.00;2.50;;;;;12.87;67.78;99755.88;5078212;27;45235;-86
2022/09/29 02:49:53;;;;;;;;;2.50;2.00;;;;;12.86;67.55;99755.03;5060239;28;45312;-86
2022/09/29 02:52:44;;;;;;;;;3.50;2.00;;;;;12.88;68.55;99755.78;5078139;27;46389;-86
2022/09/29 02:55:32;;;;;;;;;2.75;2.00;;;;;12.90;67.95;99751.31;5059421;28;45293;-86
2022/09/29 02:58:13;;;;;;;;;3.00;2.00;;;;;12.92;68.07;99748.63;5060044;28;45375;-85
2022/09/29 03:00:39;;;;;;;;;7.00;4.50;;;;;12.91;68.38;99746.97;5060078;28;45574;-86
2022/09/29 03:03:04;;;;;;;;;2.75;2.00;;;;;12.93;68.70;99747.72;5076942;28;73191;-86
2022/09/29 03:05:30;;;;;;;;;2.00;1.25;;;;;12.96;68.71;99748.41;5059615;28;50681;-86
2022/09/29 03:07:55;;;;;;;;;2.00;1.25;;;;;12.98;68.83;99741.31;5078108;27;45627;-86
2022/09/29 03:10:21;;;;;;;;;2.50;2.25;;;;;12.98;68.30;99746.56;5077467;27;45482;-86
2022/09/29 03:12:46;;;;;;;;;2.00;2.00;;;;;12.98;68.79;99746.56;5059669;28;46083;-87
2022/09/29 03:15:12;;;;;;;;;3.25;2.25;;;;;12.98;68.18;99743.94;5058796;28;68699;-86
2022/09/29 03:17:37;;;;;;;;;7.00;2.00;;;;;13.02;68.40;99735.91;5042799;28;45392;-86
2022/09/29 03:20:04;;;;;;;;;3.50;2.00;;;;;13.02;68.25;99742.00;5059656;27;45313;-86
2022/09/29 03:22:29;;;;;;;;;2.75;2.50;;;;;13.04;68.44;99747.13;5042798;28;48496;-86
2022/09/29 03:24:54;;;;;;;;;2.75;1.00;;;;;13.05;68.02;99748.81;5059183;28;45416;-86
2022/09/29 03:27:20;;;;;;;;;1.75;1.75;;;;;13.02;67.37;99752.44;5059164;28;47952;-87
2022/09/29 03:29:45;;;;;;;;;1.00;1.00;;;;;12.98;67.68;99743.94;5076828;28;64327;-87
2022/09/29 03:32:10;;;;;;;;;3.00;1.25;;;;;12.96;68.12;99744.94;5042519;28;48320;-87
2022/09/29 03:34:35;;;;;;;;;1.00;1.00;;;;;12.96;67.59;99743.19;5058417;28;69030;-87
2022/09/29 03:37:01;;;;;;;;;5.50;1.50;;;;;12.96;67.92;99747.53;5042071;28;59877;-86
2022/09/29 03:39:27;;;;;;;;;7.00;3.00;;;;;12.91;68.05;99750.41;5059108;28;45399;-86
2022/09/29 03:41:53;;;;;;;;;8.50;3.50;;;;;12.89;67.83;99757.50;5076080;27;46117;-85
2022/09/29 03:44:18;;;;;;;;;7.25;3.00;;;;;12.91;67.86;99746.97;5077308;27;45374;-86
2022/09/29 03:46:44;;;;;;;;;4.00;2.00;;;;;12.90;67.94;99750.50;5077110;28;47260;-86
2022/09/29 03:49:10;;;;;;;;;2.00;1.75;;;;;12.87;68.24;99742.81;5059310;28;45443;-86
2022/09/29 03:51:37;;;;;;;;;3.25;2.00;;;;;12.83;68.04;99744.75;5077174;28;46040;-86
2022/09/29 03:54:02;;;;;;;;;4.00;2.00;;;;;12.84;68.24;99736.00;5058649;28;45508;-85
2022/09/29 03:56:27;;;;;;;;;7.75;2.00;;;;;12.86;68.36;99736.75;5058859;28;46331;-86
2022/09/29 03:58:53;;;;;;;;;2.00;2.00;;;;;12.83;68.03;99742.13;5059159;28;45249;-86
2022/09/29 04:01:18;;;;;;;;;2.00;1.25;;;;;12.81;68.46;99740.53;5076172;28;68241;-86
2022/09/29 04:03:43;;;;;;;;;2.50;2.50;;;;;12.78;68.26;99749.41;5076989;27;45322;-86
2022/09/29 04:06:09;;;;;;;;;3.00;3.00;;;;;12.73;68.22;99748.78;5076984;28;45415;-86
2022/09/29 04:08:35;;;;;;;;;6.75;2.00;;;;;12.70;68.58;99747.22;5057920;28;59391;-85
2022/09/29 04:11:01;;;;;;;;;2.00;2.00;;;;;12.70;68.86;99755.03;5058734;28;46463;-86
2022/09/29 04:13:26;;;;;;;;;4.00;2.00;;;;;12.69;68.85;99749.91;5058576;28;45324;-86
2022/09/29 04:15:57;;;;;;;;;4.00;2.00;;;;;12.67;68.74;99749.13;5076574;28;51503;-86
2022/09/29 04:18:23;;;;;;;;;2.50;1.75;;;;;12.64;68.60;99760.56;5076874;28;45422;-86
2022/09/29 04:20:48;;;;;;;;;2.50;2.00;;;;;12.60;68.76;99748.59;5058701;28;46214;-86
2022/09/29 04:23:13;;;;;;;;;2.00;2.00;;;;;12.61;69.18;99752.06;5076626;28;45385;-87
2022/09/29 04:25:39;;;;;;;;;3.00;2.00;;;;;12.60;68.75;99753.81;5076883;28;45478;-86
2022/09/29 04:28:04;;;;;;;;;4.00;2.00;;;;;12.63;69.09;99750.19;5076723;28;45368;-86
2022/09/29 04:30:30;;;;;;;;;4.00;2.00;;;;;12.63;68.97;99758.91;5075759;28;70277;-86
2022/09/29 04:32:55;;;;;;;;;3.50;2.00;;;;;12.62;69.40;99757.19;5075663;28;68398;-86
2022/09/29 04:35:20;;;;;;;;;3.50;2.00;;;;;12.66;69.64;99761.31;5076704;27;45218;-86
2022/09/29 04:37:46;;;;;;;;;1.25;1.25;;;;;12.68;69.28;99751.63;5075601;28;62462;-86
2022/09/29 04:40:11;;;;;;;;;3.00;1.00;;;;;12.67;68.98;99757.81;5058792;28;47043;-86
2022/09/29 04:42:36;;;;;;;;;1.75;1.75;;;;;12.66;69.12;99748.28;5075432;27;73144;-86
2022/09/29 04:45:02;;;;;;;;;2.00;2.00;;;;;12.63;68.96;99758.91;5057648;28;63177;-86
2022/09/29 04:47:27;;;;;;;;;3.25;3.00;;;;;12.61;69.26;99760.75;5075106;28;45311;-86
2022/09/29 04:49:52;;;;;;;;;2.50;2.50;;;;;12.58;69.10;99751.28;5058296;28;46060;-86
2022/09/29 04:52:18;;;;;;;;;6.50;3.00;;;;;12.54;69.03;99751.56;5074909;27;71802;-86
2022/09/29 04:54:43;;;;;;;;;2.00;1.50;;;;;12.49;69.13;99754.38;5075223;28;67327;-86
2022/09/29 04:57:09;;;;;;;;;3.50;1.00;;;;;12.51;69.22;99756.91;5076118;28;49713;-86
2022/09/29 04:59:34;;;;;;;;;4.75;1.00;;;;;12.49;69.32;99761.38;5057931;28;46627;-85
2022/09/29 05:02:00;;;;;;;;;3.75;2.00;;;;;12.45;69.44;99762.47;5076133;28;45246;-86
2022/09/29 05:04:25;;;;;;;;;2.25;1.00;;;;;12.42;69.50;99758.25;5076101;28;45802;-86
2022/09/29 05:06:51;;;;;;;;;4.00;3.00;;;;;12.45;69.92;99759.88;5058131;28;45370;-86
2022/09/29 05:09:16;;;;;;;;;2.00;2.00;;;;;12.45;69.73;99752.03;5057154;28;65516;-86
2022/09/29 05:11:41;;;;;;;;;5.75;2.00;;;;;12.42;69.92;99757.41;5075212;27;65692;-86
2022/09/29 05:14:06;;;;;;;;;2.75;1.00;;;;;12.39;69.79;99761.88;5056843;28;68270;-86
2022/09/29 05:16:32;;;;;;;;;3.00;2.25;;;;;12.38;70.09;99759.31;5057006;28;66242;-86
2022/09/29 05:18:58;;;;;;;;;2.00;1.50;;;;;12.37;69.76;99758.50;5075976;27;47377;-86
2022/09/29 05:21:23;;;;;;;;;4.00;2.50;;;;;12.35;69.82;99773.38;5075819;28;45367;-86
2022/09/29 05:23:49;;;;;;;;;7.25;3.50;;;;;12.34;70.00;99763.84;5058088;28;45375;-87
2022/09/29 05:26:14;;;;;;;;;3.00;3.00;;;;;12.36;69.92;99769.84;5075681;28;51740;-86
2022/09/29 05:28:44;;;;;;;;;2.00;2.00;;;;;12.37;69.91;99776.75;5075737;28;71628;-92
2022/09/29 05:31:10;;;;;;;;;2.00;1.25;;;;;12.35;70.13;99775.13;5059636;28;45773;-85
2022/09/29 05:33:36;;;;;;;;;3.50;2.00;;;;;12.38;70.04;99774.97;5057230;28;45306;-86
2022/09/29 05:36:06;;;;;;;;;2.00;2.00;;;;;12.39;70.07;99774.06;5076059;28;45396;-90
2022/09/29 05:38:34;;;;;;;;;2.50;2.00;;;;;12.37;70.01;99771.53;5058467;28;47324;-89
2022/09/29 05:41:03;;;;;;;;;2.25;2.25;;;;;12.37;70.02;99775.94;5075319;28;45376;-90
2022/09/29 05:43:28;;;;;;;;;2.00;2.00;;;;;12.34;70.33;99778.69;5058365;28;45356;-89
2022/09/29 05:46:04;;;;;;;;;2.50;2.25;;;;;12.29;70.01;99781.50;5076115;27;45427;-89
2022/09/29 05:48:30;;;;;;;;;2.25;2.00;;;;;12.27;70.11;99775.53;5057392;28;47246;-90
2022/09/29 05:50:56;;;;;;;;;1.25;1.25;;;;;12.26;70.13;99781.69;5075076;28;45573;-90
2022/09/29 05:53:21;;;;;;;;;3.50;3.50;;;;;12.26;70.19;99780.81;5042888;28;45376;-88
2022/09/29 05:55:46;;;;;;;;;4.00;3.00;;;;;12.25;70.06;99777.38;5061331;27;45416;-87
2022/09/29 05:58:12;;;;;;;;;5.00;3.00;;;;;12.24;70.28;99783.53;5079795;28;66328;-85
2022/09/29 06:00:38;;;;;;;;;2.00;2.00;;;;;12.25;70.16;99782.59;5062116;28;45352;-88
2022/09/29 06:03:03;;;;;;;;;5.75;2.75;;;;;12.24;70.02;99785.28;5079096;28;45320;-86
2022/09/29 06:05:28;;;;;;;;;2.25;2.25;;;;;12.27;70.41;99780.75;5079068;27;45411;-85
2022/09/29 06:07:54;;;;;;;;;2.25;2.00;;;;;12.28;70.48;99789.44;5060670;28;47019;-86
2022/09/29 06:10:20;;;;;;;;;2.00;2.00;;;;;12.30;70.47;99790.22;5060784;28;45408;-86
2022/09/29 06:12:45;;;;;;;;;2.00;1.50;;;;;12.29;70.45;99788.50;5043741;28;45328;-86
2022/09/29 06:15:11;;;;;;;;;6.00;3.00;;;;;12.26;70.18;99781.69;5060410;28;47714;-86
2022/09/29 06:17:36;;;;;;;;;3.00;3.00;;;;;12.29;70.57;99798.94;5078236;27;46710;-87
2022/09/29 06:20:02;;;;;;;;;6.25;3.00;;;;;12.31;70.67;99789.25;5060512;28;45393;-86
2022/09/29 06:22:28;;;;;;;;;2.25;2.25;;;;;12.33;70.44;99790.03;5060768;28;45372;-86
2022/09/29 06:24:53;;;;;;;;;4.00;4.00;;;;;12.32;70.00;99788.34;5060532;28;45618;-86
2022/09/29 06:27:19;;;;;;;;;3.00;3.00;;;;;12.34;70.76;99789.13;5078278;28;47205;-86
2022/09/29 06:29:44;;;;;;;;;3.00;2.50;;;;;12.32;70.33;99788.34;5078655;27;45367;-87
2022/09/29 06:32:10;;;;;;;;;3.50;3.00;;;;;12.28;70.03;99792.88;5077769;28;53560;-86
2022/09/29 06:37:33;;;;;;;;;2.25;2.25;;;;;12.31;70.62;99794.50;5077557;27;60221;-87
2022/09/29 06:37:36;;;;;;;;;6.00;3.00;;;;;12.34;70.00;99786.50;5063176;28;45511;-87
2022/09/29 06:40:03;;;;;;;;;3.00;3.00;;;;;12.36;70.21;99789.88;5062504;27;45313;-87
2022/09/29 06:42:28;;;;;;;;;6.00;3.50;;;;;12.37;69.81;99795.03;5043678;28;45325;-86
2022/09/29 06:44:54;;;;;;;;;6.75;4.00;;;;;12.38;69.65;99798.47;5043469;28;45505;-86
2022/09/29 06:47:19;;;;;;;;;7.50;6.50;;;;;12.38;70.04;99795.88;5077696;27;45502;-87
2022/09/29 06:49:45;;;;;;;;;12.50;9.75;;;;;12.40;70.00;99792.25;5060580;28;45366;-86
2022/09/29 06:52:10;;;;;;;;;8.50;7.75;;;;;12.40;69.70;99794.84;5078282;28;46611;-86
2022/09/29 06:54:35;;;;;;;;;9.00;4.50;;;;;12.41;69.84;99795.72;5077495;27;57644;-87
2022/09/29 06:57:01;;;;;;;;;11.25;6.50;;;;;12.43;70.09;99801.69;5059026;28;63536;-87
2022/09/29 06:59:26;;;;;;;;;9.00;6.50;;;;;12.49;70.38;99793.53;5076847;27;45350;-86
2022/09/29 07:01:51;;;;;;;;;7.00;5.00;;;;;12.57;70.33;99800.97;5078025;27;45300;-87
2022/09/29 07:04:17;;;;;;;;;8.50;6.75;;;;;12.62;69.53;99798.97;5059237;28;50446;-86
2022/09/29 07:06:44;;;;;;;;;8.75;8.00;;;;;12.64;69.48;99801.50;5076696;28;45571;-86
2022/09/29 07:09:14;;;;;;;;;4.00;2.00;;;;;12.61;69.52;99809.47;5077855;28;45935;-86
2022/09/29 07:11:49;;;;;;;;;8.25;5.50;;;;;12.57;69.32;99808.81;5060532;27;45369;-87
2022/09/29 07:14:16;;;;;;;;;3.00;3.00;;;;;12.57;69.98;99817.50;5076616;27;45308;-87
2022/09/29 07:16:41;;;;;;;;;6.75;5.00;;;;;12.60;69.79;99813.88;5077339;28;45635;-86
2022/09/29 07:19:06;;;;;;;;;5.50;4.00;;;;;12.68;69.51;99816.06;5077793;28;45388;-86
2022/09/29 07:21:32;;;;;;;;;8.00;4.50;;;;;12.75;69.35;99828.72;5077688;27;45891;-86
2022/09/29 07:23:57;;;;;;;;;6.50;6.50;;;;;12.84;69.93;99821.34;5042879;28;45499;-86
2022/09/29 07:26:23;;;;;;;;;6.75;3.50;;;;;12.95;69.20;99822.47;5077481;27;45333;-87
2022/09/29 07:28:48;;;;;;;;;8.25;3.25;;;;;13.05;69.04;99828.03;5059221;27;66920;-94
2022/09/29 07:31:19;;;;;;;;;11.75;6.75;;;;;13.15;68.67;99836.25;5042440;28;45379;-85
2022/09/29 07:33:45;;;;;;;;;4.25;3.00;;;;;13.23;68.41;99835.81;5077654;27;45945;-83
2022/09/29 07:36:12;;;;;;;;;5.00;3.75;;;;;13.30;68.26;99838.03;5077351;28;47268;-85
2022/09/29 07:38:37;;;;;;;;;8.50;4.50;;;;;13.35;68.03;99835.16;5059266;28;45742;-86
2022/09/29 07:41:05;;;;;;;;;9.00;6.00;;;;;13.42;67.39;99840.91;5077115;27;61341;-88
2022/09/29 07:43:31;;;;;;;;;2.00;2.00;;;;;13.50;67.73;99839.56;5080801;27;45234;-83
2022/09/29 07:45:58;;;;;;;;;11.00;6.00;;;;;13.58;67.20;99841.75;5059089;28;45478;-92
2022/09/29 07:48:24;;;;;;;;;6.25;5.25;;;;;13.63;67.08;99838.88;5076944;28;45370;-87
2022/09/29 07:50:51;;;;;;;;;6.00;6.00;;;;;13.67;66.87;99845.59;5077934;28;45250;-89
2022/09/29 07:53:16;;;;;;;;;10.00;6.75;;;;;13.67;67.35;99843.84;5059834;28;45422;-87
2022/09/29 07:55:42;;;;;;;;;7.75;3.75;;;;;13.67;66.76;99843.84;5042722;28;47340;-90
2022/09/29 07:58:08;;;;;;;;;5.50;5.25;;;;;13.69;66.45;99854.22;5062346;28;45265;-95
2022/09/29 08:00:33;;;;;;;;;8.75;5.25;;;;;13.64;66.58;99858.88;5060290;28;45362;-91
2022/09/29 08:03:06;;;;;;;;;9.50;7.00;;;;;13.58;66.56;99852.22;5043364;27;45373;-90
2022/09/29 08:05:32;;;;;;;;;8.00;6.50;;;;;13.55;66.53;99865.44;5043555;28;47704;-90
2022/09/29 08:08:02;;;;;;;;;6.50;3.50;;;;;13.55;66.06;99871.50;5077650;27;45742;-90
2022/09/29 08:10:29;;;;;;;;;6.25;5.50;;;;;13.58;67.07;99869.66;5077813;28;45440;-89
2022/09/29 08:12:55;;;;;;;;;6.75;4.00;;;;;13.65;67.12;99871.88;5042495;28;45415;-91
2022/09/29 08:15:21;;;;;;;;;6.50;4.25;;;;;13.72;66.12;99873.22;5076944;28;46526;-93
2022/09/29 08:17:47;;;;;;;;;9.00;8.25;;;;;13.77;66.22;99872.09;5059974;28;45296;-89
2022/09/29 08:20:13;;;;;;;;;10.00;8.00;;;;;13.79;66.26;99878.94;5043070;28;45350;-93
2022/09/29 08:22:38;;;;;;;;;9.25;7.50;;;;;13.85;66.45;99885.59;5033451;28;45839;-87
2022/09/29 08:25:04;;;;;;;;;10.50;5.75;;;;;13.91;65.90;99882.63;5066361;27;58184;-89
2022/09/29 08:27:29;;;;;;;;;7.25;7.00;;;;;13.99;65.43;99885.66;5051169;28;45458;-90
2022/09/29 08:29:55;;;;;;;;;6.25;5.50;;;;;14.08;65.46;99886.91;5051639;28;45494;-89
2022/09/29 08:32:21;;;;;;;;;11.00;7.00;;;;;14.16;65.19;99886.47;5052275;28;45514;-90
2022/09/29 08:34:46;;;;;;;;;9.25;8.75;;;;;14.25;64.91;99888.56;5048810;28;47934;-89
2022/09/29 08:37:12;;;;;;;;;12.50;8.75;;;;;14.43;64.51;99891.88;5049744;28;60048;-90
2022/09/29 08:39:38;;;;;;;;;10.75;8.75;;;;;14.57;63.99;99894.56;5032620;28;45386;-90
2022/09/29 08:42:18;;;;;;;;;5.00;4.00;;;;;14.74;63.75;99890.94;5051076;28;45493;-89
2022/09/29 08:44:57;;;;;;;;;4.75;4.00;;;;;14.96;63.48;99895.72;5052489;28;46626;-91
2022/09/29 08:47:28;;;;;;;;;11.00;8.75;;;;;15.15;62.09;99897.22;5033540;28;45855;-89
2022/09/29 08:49:56;;;;;;;;;13.50;8.00;;;;;15.26;62.91;99902.66;5033292;28;45512;-89
2022/09/29 08:52:25;;;;;;;;;7.00;6.25;;;;;15.37;62.58;99905.47;5051240;28;45413;-90
2022/09/29 08:54:56;;;;;;;;;5.25;4.50;;;;;15.37;61.22;99905.47;5029100;28;45523;-86
2022/09/29 08:57:21;;;;;;;;;6.00;5.00;;;;;15.33;61.05;99913.63;5028176;28;45840;-83
2022/09/29 08:59:57;;;;;;;;;8.25;5.00;;;;;15.25;60.39;99916.72;5011962;28;45523;-85
2022/09/29 09:02:46;;;;;;;;;5.25;5.00;;;;;15.17;60.59;99916.31;5011908;28;45575;-85
2022/09/29 09:05:23;;;;;;;;;10.50;9.00;;;;;15.03;60.02;99914.56;5028257;28;45874;-84
2022/09/29 09:08:01;;;;;;;;;8.00;8.00;;;;;14.90;61.07;99912.66;5028427;28;45865;-85
2022/09/29 09:10:43;;;;;;;;;11.00;9.00;;;;;14.84;61.21;99912.19;5029997;28;45868;-84
2022/09/29 09:13:29;;;;;;;;;8.25;8.00;;;;;14.75;61.32;99910.13;5034414;28;45767;-85
2022/09/29 09:16:07;;;;;;;;;8.75;5.00;;;;;14.70;61.90;99913.03;5047796;28;45748;-84
2022/09/29 09:18:52;;;;;;;;;8.00;7.25;;;;;14.72;61.72;99921.63;5046119;28;45894;-85
2022/09/29 09:21:19;;;;;;;;;7.50;5.00;;;;;14.69;60.45;99917.41;5046231;28;45505;-90
2022/09/29 09:23:54;;;;;;;;;6.75;6.50;;;;;14.69;61.00;99912.19;5031162;28;45333;-91
2022/09/29 09:26:41;;;;;;;;;7.75;5.00;;;;;14.82;61.76;99914.91;5048467;28;46144;-88
2022/09/29 09:29:17;;;;;;;;;8.75;6.25;;;;;14.94;60.90;99918.56;5051259;28;45446;-87
2022/09/29 09:31:47;;;;;;;;;7.75;6.00;;;;;15.10;61.47;99915.88;5050024;28;45718;-86
2022/09/29 09:34:20;;;;;;;;;12.25;9.00;;;;;15.26;60.85;99913.16;5049665;28;45691;-86
2022/09/29 09:36:57;;;;;;;;;9.00;6.25;;;;;15.37;60.58;99921.19;5050153;28;46236;-94
2022/09/29 09:39:35;;;;;;;;;14.00;10.00;;;;;15.51;60.84;99915.09;5050957;28;45860;-92
2022/09/29 09:42:07;;;;;;;;;5.25;5.25;;;;;15.57;59.87;99924.38;5051905;28;45740;-89
2022/09/29 09:44:36;;;;;;;;;10.00;8.00;;;;;15.59;59.53;99925.94;5052254;28;45520;-89
2022/09/29 09:47:24;;;;;;;;;12.75;9.75;;;;;15.68;59.54;99930.63;5050931;28;45821;-90
2022/09/29 09:49:55;;;;;;;;;7.75;7.75;;;;;15.77;59.58;99931.84;5050246;28;45529;-89
2022/09/29 09:52:26;;;;;;;;;6.75;6.00;;;;;15.90;59.39;99926.66;5050715;28;45823;-86
2022/09/29 09:54:58;;;;;;;;;9.75;8.00;;;;;16.01;58.65;99932.06;5070532;27;45865;-87
2022/09/29 09:57:29;;;;;;;;;8.00;6.00;;;;;16.08;58.48;99932.50;5052378;28;46388;-86
2022/09/29 10:00:08;;;;;;;;;8.00;8.00;;;;;16.14;58.52;99937.38;5054199;28;45438;-91
2022/09/29 10:02:34;;;;;;;;;4.00;4.00;;;;;16.24;58.07;99934.97;5073687;28;46198;-91
2022/09/29 10:04:59;;;;;;;;;5.00;5.00;;;;;16.26;57.34;99930.47;5054653;28;45403;-92
2022/09/29 10:07:27;;;;;;;;;5.50;4.00;;;;;16.30;57.08;99937.19;5055075;28;45869;-94
2022/09/29 10:09:54;;;;;;;;;4.75;3.00;;;;;16.36;56.18;99939.44;5055440;28;45858;-96
2022/09/29 10:12:21;;;;;;;;;2.00;2.00;;;;;16.42;56.45;99936.41;5063115;28;45533;-92
2022/09/29 10:14:52;;;;;;;;;1.75;1.75;;;;;16.46;55.74;99937.03;5061765;27;45836;-92
2022/09/29 10:17:19;;;;;;;;;4.50;3.00;;;;;16.51;55.58;99929.72;5055301;28;46452;-88
2022/09/29 10:19:54;;;;;;;;;4.75;2.00;;;;;16.62;55.35;99939.47;5060607;28;45598;-90
2022/09/29 10:22:20;;;;;;;;;5.25;4.75;;;;;16.73;55.37;99941.38;5060219;28;45453;-88
2022/09/29 10:24:45;;;;;;;;;3.00;3.00;;;;;16.88;55.88;99932.50;5060283;28;45415;-89
2022/09/29 10:27:17;;;;;;;;;4.00;4.00;;;;;17.08;55.60;99936.38;5081625;27;47172;-88
2022/09/29 10:29:48;;;;;;;;;6.00;5.00;;;;;17.17;55.19;99938.38;5062044;28;45241;-95
2022/09/29 10:32:16;;;;;;;;;4.75;3.25;;;;;17.32;54.88;99935.66;5062987;28;45324;-96
2022/09/29 10:34:45;;;;;;;;;5.25;3.50;;;;;17.53;54.60;99933.28;5061376;28;45365;-92
2022/09/29 10:37:36;;;;;;;;;8.50;7.75;;;;;17.83;54.29;99934.69;5077947;28;46571;-89
2022/09/29 10:40:09;;;;;;;;;7.00;7.00;;;;;18.16;54.20;99939.31;5077654;28;45825;-91
2022/09/29 10:42:39;;;;;;;;;6.75;6.75;;;;;18.39;53.23;99937.63;5079608;27;45261;-92
2022/09/29 10:45:46;;;;;;;;;8.00;6.50;;;;;18.47;53.47;99932.63;5078964;28;45391;-95
2022/09/29 10:48:14;;;;;;;;;8.25;7.75;;;;;18.37;52.80;99942.19;5017093;28;45766;-90
2022/09/29 10:50:51;;;;;;;;;9.25;8.00;;;;;18.21;52.71;99949.53;5015791;28;51105;-92
2022/09/29 10:53:25;;;;;;;;;3.50;3.50;;;;;18.05;53.23;99948.00;4999883;28;45473;-90
2022/09/29 10:55:53;;;;;;;;;3.25;3.25;;;;;17.82;52.15;99959.34;5016887;28;45438;-88
2022/09/29 10:58:34;;;;;;;;;4.25;2.75;;;;;17.58;52.54;99958.31;4999947;28;46251;-89
2022/09/29 11:01:06;;;;;;;;;3.25;2.00;;;;;17.32;52.23;99961.94;4999874;28;45557;-90
2022/09/29 11:03:32;;;;;;;;;6.00;3.00;;;;;17.14;53.65;99957.03;4999894;28;45309;-89
2022/09/29 11:06:01;;;;;;;;;18.50;13.25;;;;;16.95;54.61;99959.22;4978546;28;45447;-92
2022/09/29 11:08:27;;;;;;;;;13.25;12.50;;;;;16.75;55.51;99963.16;4979452;28;45984;-89
2022/09/29 11:11:05;;;;;;;;;14.00;12.75;;;;;16.54;55.95;99968.06;4978604;28;45532;-91
2022/09/29 11:13:49;;;;;;;;;17.50;15.25;;;;;16.30;56.89;99978.38;5004037;28;45630;-91
2022/09/29 11:16:54;;;;;;;;;17.25;11.25;;;;;16.03;57.44;99981.84;4965620;28;45501;-89
2022/09/29 11:19:20;;;;;;;;;12.75;11.50;;;;;15.79;58.25;99981.63;4939049;28;45646;-86
2022/09/29 11:22:08;;;;;;;;;14.50;9.50;;;;;15.58;58.54;99989.84;4955369;28;45750;-88
2022/09/29 11:24:58;;;;;;;;;13.50;11.50;;;;;15.37;60.78;99993.78;4991439;28;45572;-89
2022/09/29 11:27:39;;;;;;;;;12.00;11.00;;;;;15.19;61.38;99996.59;5005922;28;45639;-90
2022/09/29 11:30:14;;;;;;;;;15.00;11.00;;;;;15.00;61.81;99999.44;5009122;28;47376;-90
2022/09/29 11:33:00;;;;;;;;;12.00;11.00;;;;;14.85;62.80;100005.59;5006760;28;45486;-86
2022/09/29 11:35:53;;;;;;;;;9.50;6.50;;;;;14.65;63.93;100014.59;5006324;28;45505;-91
2022/09/29 11:38:21;;;;;;;;;9.50;9.25;;;;;14.53;63.99;100008.25;4991736;28;45619;-90
2022/09/29 11:41:19;;;;;;;;;12.75;9.50;;;;;14.45;65.30;100013.06;5008675;28;45691;-93
2022/09/29 11:43:51;;;;;;;;;21.25;17.00;;;;;14.37;67.32;100016.13;4989636;28;45550;-88
2022/09/29 11:46:34;;;;;;;;;26.00;21.25;;;;;14.27;66.18;100007.94;4990426;28;45598;-88